createdAt,value
2023-04-19T00:02:09.864Z,9.60
2023-04-19T00:04:39.181Z,9.60
2023-04-19T00:07:07.757Z,9.50
2023-04-19T00:09:35.891Z,9.40
2023-04-19T00:12:05.560Z,9.40
2023-04-19T00:14:33.684Z,9.40
2023-04-19T00:17:01.941Z,9.40
2023-04-19T00:19:30.104Z,9.40
2023-04-19T00:21:58.213Z,9.40
2023-04-19T00:24:26.427Z,9.40
2023-04-19T00:26:54.522Z,9.30
2023-04-19T00:29:24.122Z,9.20
2023-04-19T00:31:53.010Z,9.20
2023-04-19T00:34:21.204Z,9.20
2023-04-19T00:36:49.297Z,9.20
2023-04-19T00:39:17.635Z,9.20
2023-04-19T00:41:45.918Z,9.10
2023-04-19T00:44:14.284Z,9.10
2023-04-19T00:46:45.232Z,9.10
2023-04-19T00:49:13.468Z,9.00
2023-04-19T00:51:42.691Z,9.00
2023-04-19T00:54:11.072Z,8.90
2023-04-19T00:56:40.019Z,8.90
2023-04-19T00:59:08.451Z,8.80
2023-04-19T01:01:38.174Z,8.80
2023-04-19T01:04:08.166Z,8.70
2023-04-19T01:06:38.120Z,8.70
2023-04-19T01:09:06.304Z,8.70
2023-04-19T01:11:35.328Z,8.70
2023-04-19T01:14:03.474Z,8.70
2023-04-19T01:16:33.361Z,8.70
2023-04-19T01:19:01.537Z,8.70
2023-04-19T01:21:32.481Z,8.60
2023-04-19T01:24:01.997Z,8.50
2023-04-19T01:26:30.224Z,8.60
2023-04-19T01:28:58.331Z,8.60
2023-04-19T01:31:26.483Z,8.60
2023-04-19T01:33:54.710Z,8.50
2023-04-19T01:36:22.936Z,8.50
2023-04-19T01:38:51.412Z,8.40
2023-04-19T01:41:22.720Z,8.40
2023-04-19T01:43:50.844Z,8.40
2023-04-19T01:46:18.957Z,8.40
2023-04-19T01:48:47.089Z,8.40
2023-04-19T01:51:17.311Z,8.20
2023-04-19T01:53:45.478Z,8.20
2023-04-19T01:56:13.592Z,8.20
2023-04-19T01:58:43.064Z,8.20
2023-04-19T02:01:12.646Z,8.10
2023-04-19T02:03:41.183Z,8.20
2023-04-19T02:06:13.378Z,8.10
2023-04-19T02:08:42.838Z,8.00
2023-04-19T02:11:14.362Z,8.00
2023-04-19T02:13:44.248Z,8.00
2023-04-19T02:16:12.857Z,7.90
2023-04-19T02:18:41.580Z,7.90
2023-04-19T02:21:10.982Z,7.80
2023-04-19T02:23:39.177Z,7.80
2023-04-19T02:26:07.483Z,7.70
2023-04-19T02:28:35.750Z,7.60
2023-04-19T02:31:08.349Z,7.60
2023-04-19T02:33:37.020Z,7.60
2023-04-19T02:36:05.707Z,7.60
2023-04-19T02:38:33.910Z,7.60
2023-04-19T02:41:04.284Z,7.50
2023-04-19T02:43:32.437Z,7.50
2023-04-19T02:46:00.801Z,7.50
2023-04-19T02:48:30.422Z,7.50
2023-04-19T02:50:58.999Z,7.50
2023-04-19T02:53:27.154Z,7.50
2023-04-19T02:55:55.326Z,7.40
2023-04-19T02:58:23.451Z,7.30
2023-04-19T03:00:51.623Z,7.40
2023-04-19T03:03:19.850Z,7.30
2023-04-19T03:05:49.438Z,7.20
2023-04-19T03:08:17.714Z,7.20
2023-04-19T03:10:46.031Z,7.20
2023-04-19T03:13:14.180Z,7.20
2023-04-19T03:15:42.354Z,7.20
2023-04-19T03:18:10.498Z,7.20
2023-04-19T03:20:38.612Z,7.20
2023-04-19T03:23:08.338Z,7.20
2023-04-19T03:25:36.451Z,7.30
2023-04-19T03:28:04.706Z,7.20
2023-04-19T03:30:32.842Z,7.20
2023-04-19T03:33:00.999Z,7.10
2023-04-19T03:35:30.880Z,7.10
2023-04-19T03:37:59.376Z,7.20
2023-04-19T03:40:29.016Z,7.20
2023-04-19T03:42:57.157Z,7.20
2023-04-19T03:45:25.535Z,7.20
2023-04-19T03:47:53.816Z,7.10
2023-04-19T03:50:22.000Z,7.10
2023-04-19T03:52:50.168Z,7.10
2023-04-19T03:55:18.501Z,7.10
2023-04-19T03:57:47.979Z,7.10
2023-04-19T04:00:17.136Z,7.00
2023-04-19T04:02:45.532Z,7.10
2023-04-19T04:05:14.018Z,7.10
2023-04-19T04:07:42.182Z,7.00
2023-04-19T04:10:10.926Z,7.00
2023-04-19T04:12:39.043Z,7.00
2023-04-19T04:15:10.582Z,7.00
2023-04-19T04:17:39.046Z,7.00
2023-04-19T04:20:11.761Z,7.10
2023-04-19T04:22:43.334Z,7.00
2023-04-19T04:25:12.501Z,6.90
2023-04-19T04:27:40.636Z,7.00
2023-04-19T04:30:11.439Z,7.10
2023-04-19T04:32:40.975Z,7.00
2023-04-19T04:35:11.616Z,7.00
2023-04-19T04:37:40.219Z,7.00
2023-04-19T04:40:10.041Z,7.10
2023-04-19T04:42:38.663Z,7.00
2023-04-19T04:45:10.707Z,7.00
2023-04-19T04:47:39.045Z,7.00
2023-04-19T04:50:09.170Z,7.10
2023-04-19T04:52:37.263Z,7.10
2023-04-19T04:55:07.348Z,7.10
2023-04-19T04:57:35.479Z,7.10
2023-04-19T05:00:04.978Z,7.10
2023-04-19T05:02:34.519Z,7.20
2023-04-19T05:05:03.287Z,7.20
2023-04-19T05:07:31.462Z,7.30
2023-04-19T05:09:59.546Z,7.20
2023-04-19T05:12:27.597Z,7.30
2023-04-19T05:14:55.692Z,7.30
2023-04-19T05:17:23.935Z,7.30
2023-04-19T05:19:53.657Z,7.30
2023-04-19T05:22:21.836Z,7.50
2023-04-19T05:24:50.750Z,7.50
2023-04-19T05:27:19.078Z,7.50
2023-04-19T05:29:47.188Z,7.40
2023-04-19T05:32:15.293Z,7.30
2023-04-19T05:34:43.413Z,7.30
2023-04-19T05:37:13.002Z,7.40
2023-04-19T05:39:43.572Z,7.40
2023-04-19T05:42:12.478Z,7.40
2023-04-19T05:44:40.626Z,7.40
2023-04-19T05:47:08.876Z,7.30
2023-04-19T05:49:36.975Z,7.40
2023-04-19T05:52:05.593Z,7.50
2023-04-19T05:54:36.037Z,7.50
2023-04-19T05:57:04.482Z,7.60
2023-04-19T05:59:32.670Z,7.70
2023-04-19T06:02:01.485Z,7.70
2023-04-19T06:04:30.112Z,7.70
2023-04-19T06:06:58.445Z,7.80
2023-04-19T06:09:26.580Z,7.90
2023-04-19T06:11:56.796Z,8.00
2023-04-19T06:14:25.210Z,7.90
2023-04-19T06:16:53.280Z,7.90
2023-04-19T06:19:21.876Z,8.00
2023-04-19T06:21:50.032Z,8.00
2023-04-19T06:24:18.175Z,8.00
2023-04-19T06:26:48.319Z,8.10
2023-04-19T06:29:20.301Z,8.20
2023-04-19T06:31:48.512Z,8.10
2023-04-19T06:34:17.227Z,8.20
2023-04-19T06:36:45.642Z,8.10
2023-04-19T06:39:13.807Z,8.00
2023-04-19T06:41:41.960Z,8.00
2023-04-19T06:44:10.054Z,8.00
2023-04-19T06:46:39.552Z,7.90
2023-04-19T06:49:07.713Z,8.00
2023-04-19T06:51:36.069Z,8.00
2023-04-19T06:54:04.418Z,8.10
2023-04-19T06:56:45.593Z,8.00
2023-04-19T06:59:16.529Z,8.00
2023-04-19T07:01:47.026Z,8.00
2023-04-19T07:04:16.595Z,8.00
2023-04-19T07:06:45.212Z,8.00
2023-04-19T07:09:13.346Z,7.90
2023-04-19T07:11:41.431Z,8.00
2023-04-19T07:14:09.758Z,8.00
2023-04-19T07:16:38.030Z,8.00
2023-04-19T07:19:07.683Z,8.00
2023-04-19T07:21:35.867Z,7.90
2023-04-19T07:24:04.145Z,8.10
2023-04-19T07:26:32.267Z,8.30
2023-04-19T07:29:00.636Z,8.60
2023-04-19T07:31:29.736Z,9.00
2023-04-19T07:33:57.955Z,9.30
2023-04-19T07:36:27.754Z,9.20
2023-04-19T07:38:55.998Z,9.00
2023-04-19T07:41:24.170Z,8.90
2023-04-19T07:43:52.308Z,8.80
2023-04-19T07:46:20.592Z,8.70
2023-04-19T07:48:48.763Z,8.60
2023-04-19T07:51:19.226Z,8.50
2023-04-19T07:53:49.183Z,8.60
2023-04-19T07:56:17.394Z,8.50
2023-04-19T07:58:50.833Z,8.60
2023-04-19T08:01:25.037Z,8.60
2023-04-19T08:03:53.586Z,8.70
2023-04-19T08:06:22.324Z,8.80
2023-04-19T08:08:51.792Z,8.80
2023-04-19T08:11:20.096Z,8.80
2023-04-19T08:14:02.911Z,8.80
2023-04-19T08:17:14.700Z,8.90
2023-04-19T08:19:23.052Z,8.90
2023-04-19T08:21:51.185Z,8.90
2023-04-19T08:24:20.569Z,8.90
2023-04-19T08:26:53.645Z,8.90
2023-04-19T08:29:22.093Z,9.00
2023-04-19T08:31:50.380Z,9.20
2023-04-19T08:34:18.689Z,9.20
2023-04-19T08:37:00.156Z,9.20
2023-04-19T08:39:34.640Z,9.20
2023-04-19T08:42:10.939Z,9.40
2023-04-19T08:44:59.019Z,9.40
2023-04-19T08:47:34.302Z,9.40
2023-04-19T08:50:17.415Z,9.40
2023-04-19T08:52:58.764Z,9.60
2023-04-19T08:55:32.679Z,9.70
2023-04-19T08:58:05.766Z,9.80
2023-04-19T09:00:41.248Z,10.00
2023-04-19T09:03:09.958Z,10.10
2023-04-19T09:05:38.573Z,10.10
2023-04-19T09:08:24.897Z,10.30
2023-04-19T09:11:00.018Z,10.30
2023-04-19T09:13:29.852Z,10.40
2023-04-19T09:16:00.349Z,10.40
2023-04-19T09:18:31.394Z,10.50
2023-04-19T09:21:01.330Z,10.40
2023-04-19T09:23:29.849Z,10.40
2023-04-19T09:26:22.297Z,10.50
2023-04-19T09:28:58.894Z,10.60
2023-04-19T09:31:47.837Z,10.80
2023-04-19T09:34:19.663Z,10.80
2023-04-19T09:36:52.441Z,10.70
2023-04-19T09:39:33.531Z,10.80
2023-04-19T09:42:03.254Z,10.90
2023-04-19T09:45:09.459Z,10.90
2023-04-19T09:47:30.050Z,10.80
2023-04-19T09:50:21.318Z,10.90
2023-04-19T09:52:53.251Z,10.90
2023-04-19T09:55:27.452Z,10.90
2023-04-19T09:57:58.119Z,11.00
2023-04-19T10:00:28.270Z,11.00
2023-04-19T10:02:59.217Z,11.20
2023-04-19T10:05:27.861Z,11.10
2023-04-19T10:08:00.157Z,11.10
2023-04-19T10:10:41.426Z,11.20
2023-04-19T10:15:52.540Z,11.50
2023-04-19T10:18:26.346Z,11.50
2023-04-19T10:21:02.439Z,11.50
2023-04-19T10:23:32.637Z,11.50
2023-04-19T10:26:00.909Z,11.60
2023-04-19T10:28:31.745Z,11.80
2023-04-19T10:31:02.673Z,11.90
2023-04-19T10:33:35.847Z,12.00
2023-04-19T10:36:05.068Z,12.10
2023-04-19T10:38:39.873Z,12.20
2023-04-19T10:41:17.065Z,12.20
2023-04-19T10:43:49.569Z,12.20
2023-04-19T10:46:38.092Z,12.10
2023-04-19T10:49:07.870Z,12.10
2023-04-19T10:51:38.637Z,12.30
2023-04-19T10:54:08.580Z,12.50
2023-04-19T10:57:04.583Z,12.60
2023-04-19T10:59:36.575Z,12.60
2023-04-19T11:02:06.771Z,12.60
2023-04-19T11:05:02.392Z,12.60
2023-04-19T11:07:38.367Z,12.60
2023-04-19T11:10:07.652Z,12.60
2023-04-19T11:12:36.021Z,12.50
2023-04-19T11:15:10.557Z,12.50
2023-04-19T11:17:39.554Z,12.50
2023-04-19T11:20:10.780Z,12.60
2023-04-19T11:22:41.408Z,12.50
2023-04-19T11:25:12.832Z,12.60
2023-04-19T11:27:42.869Z,12.80
2023-04-19T11:30:16.569Z,13.10
2023-04-19T11:32:49.371Z,13.20
2023-04-19T11:35:22.295Z,13.00
2023-04-19T11:37:51.233Z,13.00
2023-04-19T11:40:21.931Z,13.00
2023-04-19T11:42:56.603Z,12.90
2023-04-19T11:45:33.471Z,12.90
2023-04-19T11:48:07.128Z,13.10
2023-04-19T11:50:38.221Z,13.30
2023-04-19T11:53:16.027Z,13.40
2023-04-19T11:55:46.474Z,13.20
2023-04-19T11:58:33.534Z,13.20
2023-04-19T12:01:07.384Z,13.10
2023-04-19T12:03:36.174Z,12.90
2023-04-19T12:06:09.032Z,12.90
2023-04-19T12:08:39.132Z,13.00
2023-04-19T12:11:08.033Z,13.00
2023-04-19T12:13:37.338Z,12.90
2023-04-19T12:16:07.688Z,13.00
2023-04-19T12:18:48.813Z,12.90
2023-04-19T12:21:27.857Z,12.70
2023-04-19T12:23:58.084Z,12.50
2023-04-19T12:26:26.910Z,12.30
2023-04-19T12:28:55.466Z,12.20
2023-04-19T12:31:24.950Z,12.10
2023-04-19T12:33:53.665Z,12.10
2023-04-19T12:36:22.269Z,12.00
2023-04-19T12:38:50.437Z,11.80
2023-04-19T12:41:18.485Z,11.60
2023-04-19T12:43:46.470Z,11.20
2023-04-19T12:46:14.572Z,10.90
2023-04-19T12:48:44.010Z,10.90
2023-04-19T12:51:12.291Z,11.00
2023-04-19T12:53:42.427Z,11.30
2023-04-19T12:56:12.268Z,11.70
2023-04-19T12:58:40.387Z,11.90
2023-04-19T13:01:08.691Z,12.00
2023-04-19T13:03:37.462Z,12.10
2023-04-19T13:06:07.883Z,12.30
2023-04-19T13:08:44.952Z,12.60
2023-04-19T13:11:16.355Z,13.00
2023-04-19T13:13:44.463Z,13.20
2023-04-19T13:16:12.512Z,13.30
2023-04-19T13:18:40.689Z,13.40
2023-04-19T13:21:10.040Z,13.20
2023-04-19T13:23:38.115Z,13.10
2023-04-19T13:26:07.062Z,12.90
2023-04-19T13:28:36.629Z,12.80
2023-04-19T13:31:05.759Z,12.60
2023-04-19T13:33:34.150Z,12.50
2023-04-19T13:36:02.270Z,12.40
2023-04-19T13:38:31.725Z,12.60
2023-04-19T13:41:00.711Z,12.70
2023-04-19T13:43:28.765Z,13.00
2023-04-19T13:45:56.938Z,13.20
2023-04-19T13:48:27.367Z,13.40
2023-04-19T13:50:55.952Z,13.60
2023-04-19T13:53:25.215Z,13.60
2023-04-19T13:55:54.600Z,13.50
2023-04-19T13:58:24.633Z,13.40
2023-04-19T14:00:53.585Z,13.10
2023-04-19T14:03:23.601Z,12.90
2023-04-19T14:05:51.919Z,12.70
2023-04-19T14:08:20.034Z,12.60
2023-04-19T14:10:48.141Z,12.50
2023-04-19T14:13:17.577Z,12.50
2023-04-19T14:15:46.345Z,12.70
2023-04-19T14:18:14.406Z,13.10
2023-04-19T14:20:42.491Z,13.40
2023-04-19T14:23:10.596Z,13.60
2023-04-19T14:25:38.653Z,13.70
2023-04-19T14:28:06.708Z,13.60
2023-04-19T14:30:36.163Z,13.50
2023-04-19T14:33:04.392Z,13.20
2023-04-19T14:35:32.654Z,13.10
2023-04-19T14:38:00.671Z,13.20
2023-04-19T14:40:28.765Z,13.10
2023-04-19T14:42:56.808Z,12.90
2023-04-19T14:45:24.853Z,13.00
2023-04-19T14:47:54.328Z,12.90
2023-04-19T14:50:22.456Z,12.80
2023-04-19T14:52:50.516Z,12.60
2023-04-19T14:55:18.786Z,12.40
2023-04-19T14:57:46.846Z,11.90
2023-04-19T15:00:16.236Z,11.60
2023-04-19T15:02:44.448Z,11.00
2023-04-19T15:05:14.182Z,10.50
2023-04-19T15:07:42.456Z,9.80
2023-04-19T15:10:11.500Z,9.50
2023-04-19T15:12:39.543Z,9.10
2023-04-19T15:15:09.182Z,8.80
2023-04-19T15:17:37.280Z,8.60
2023-04-19T15:20:06.575Z,8.40
2023-04-19T15:22:36.025Z,8.40
2023-04-19T15:25:04.414Z,8.40
2023-04-19T15:27:32.775Z,8.50
2023-04-19T15:30:00.871Z,8.60
2023-04-19T15:32:30.921Z,8.60
2023-04-19T15:34:58.939Z,8.80
2023-04-19T15:37:27.482Z,9.00
2023-04-19T15:39:56.955Z,9.10
2023-04-19T15:42:25.097Z,9.30
2023-04-19T15:44:53.186Z,9.50
2023-04-19T15:47:21.286Z,9.70
2023-04-19T15:49:49.286Z,10.00
2023-04-19T15:52:18.782Z,10.20
2023-04-19T15:54:46.962Z,10.30
2023-04-19T15:57:16.330Z,10.50
2023-04-19T15:59:44.421Z,10.70
2023-04-19T16:02:12.574Z,10.80
2023-04-19T16:04:40.873Z,10.80
2023-04-19T16:07:09.018Z,10.80
2023-04-19T16:09:37.043Z,10.80
2023-04-19T16:12:05.544Z,10.90
2023-04-19T16:14:34.951Z,10.90
2023-04-19T16:17:02.976Z,10.80
2023-04-19T16:19:31.034Z,10.80
2023-04-19T16:22:01.975Z,10.90
2023-04-19T16:24:30.148Z,10.90
2023-04-19T16:26:58.769Z,11.00
2023-04-19T16:29:26.867Z,11.10
2023-04-19T16:31:56.420Z,11.10
2023-04-19T16:34:25.403Z,11.00
2023-04-19T16:36:55.310Z,11.00
2023-04-19T16:39:23.374Z,10.80
2023-04-19T16:41:51.648Z,10.80
2023-04-19T16:44:19.680Z,10.60
2023-04-19T16:46:47.742Z,10.50
2023-04-19T16:49:17.724Z,10.20
2023-04-19T16:51:46.952Z,10.10
2023-04-19T16:54:15.071Z,10.00
2023-04-19T16:56:43.433Z,10.00
2023-04-19T16:59:11.488Z,10.00
2023-04-19T17:01:39.570Z,9.90
2023-04-19T17:04:07.874Z,9.90
2023-04-19T17:06:37.531Z,9.90
2023-04-19T17:09:06.076Z,9.90
2023-04-19T17:11:34.648Z,9.80
2023-04-19T17:14:02.684Z,9.70
2023-04-19T17:16:30.779Z,9.80
2023-04-19T17:18:58.826Z,9.70
2023-04-19T17:21:27.485Z,9.90
2023-04-19T17:23:56.937Z,9.80
2023-04-19T17:26:25.024Z,9.80
2023-04-19T17:28:53.100Z,9.80
2023-04-19T17:31:21.239Z,9.70
2023-04-19T17:33:49.330Z,9.70
2023-04-19T17:36:18.555Z,9.70
2023-04-19T17:38:46.726Z,9.70
2023-04-19T17:41:16.975Z,9.60
2023-04-19T17:43:45.594Z,9.60
2023-04-19T17:46:15.060Z,9.50
2023-04-19T17:48:43.248Z,9.50
2023-04-19T17:51:11.411Z,9.50
2023-04-19T17:53:39.737Z,9.50
2023-04-19T17:56:07.873Z,9.40
2023-04-19T17:58:37.374Z,9.30
2023-04-19T18:01:06.505Z,9.20
2023-04-19T18:03:34.806Z,9.10
2023-04-19T18:06:03.085Z,9.00
2023-04-19T18:08:31.192Z,8.90
2023-04-19T18:10:59.287Z,8.80
2023-04-19T18:13:27.538Z,8.70
2023-04-19T18:15:57.019Z,8.70
2023-04-19T18:18:25.111Z,8.70
2023-04-19T18:20:53.152Z,8.70
2023-04-19T18:23:21.229Z,8.80
2023-04-19T18:25:54.984Z,8.80
2023-04-19T18:28:23.522Z,8.80
2023-04-19T18:30:51.630Z,9.00
2023-04-19T18:33:21.052Z,8.70
2023-04-19T18:35:49.209Z,8.40
2023-04-19T18:38:17.335Z,8.10
2023-04-19T18:40:45.434Z,7.90
2023-04-19T18:43:13.565Z,7.70
2023-04-19T18:45:41.779Z,7.60
2023-04-19T18:48:10.254Z,7.50
2023-04-19T18:50:39.827Z,7.30
2023-04-19T18:53:07.935Z,7.20
2023-04-19T18:55:36.008Z,7.00
2023-04-19T18:58:04.157Z,6.90
2023-04-19T19:00:32.234Z,6.80
2023-04-19T19:03:02.018Z,6.80
2023-04-19T19:05:32.012Z,6.80
2023-04-19T19:08:01.984Z,6.80
2023-04-19T19:13:01.418Z,6.70
2023-04-19T19:15:29.900Z,6.70
2023-04-19T19:17:58.153Z,6.60
2023-04-19T19:20:26.480Z,6.50
2023-04-19T19:22:54.796Z,6.30
2023-04-19T19:25:24.960Z,6.30
2023-04-19T19:30:29.456Z,6.30
2023-04-19T19:32:57.641Z,6.20
2023-04-19T19:35:25.795Z,6.20
2023-04-19T19:37:53.904Z,6.10
2023-04-19T19:40:23.541Z,6.00
2023-04-19T19:42:51.573Z,6.00
2023-04-19T19:45:19.943Z,6.00
2023-04-19T19:47:49.969Z,6.00
2023-04-19T19:52:51.183Z,6.00
2023-04-19T19:55:19.352Z,6.00
2023-04-19T19:58:21.011Z,6.00
2023-04-19T20:00:46.219Z,5.90
2023-04-19T20:03:24.654Z,5.90
2023-04-19T20:06:05.509Z,5.90
2023-04-19T20:08:49.931Z,5.80
2023-04-19T20:11:18.159Z,5.70
2023-04-19T20:13:47.661Z,5.70
2023-04-19T20:16:18.284Z,5.80
2023-04-19T20:18:48.970Z,5.80
2023-04-19T20:21:19.491Z,5.90
2023-04-19T20:23:47.941Z,5.80
2023-04-19T20:26:16.224Z,5.80
2023-04-19T20:28:44.335Z,5.80
2023-04-19T20:31:13.818Z,5.70
2023-04-19T20:33:42.106Z,5.60
2023-04-19T20:36:10.500Z,5.60
2023-04-19T20:38:38.644Z,5.50
2023-04-19T20:41:06.876Z,5.40
2023-04-19T20:43:35.270Z,5.40
2023-04-19T20:46:03.472Z,5.40
2023-04-19T20:48:33.042Z,5.40
2023-04-19T20:51:01.217Z,5.40
2023-04-19T20:53:29.334Z,5.40
2023-04-19T20:55:57.534Z,5.50
2023-04-19T20:58:25.651Z,5.60
2023-04-19T21:00:53.794Z,5.60
2023-04-19T21:03:22.092Z,5.60
2023-04-19T21:05:51.761Z,5.70
2023-04-19T21:08:19.879Z,5.70
2023-04-19T21:10:47.944Z,5.70
2023-04-19T21:13:16.119Z,5.70
2023-04-19T21:15:44.333Z,5.80
2023-04-19T21:18:12.449Z,5.70
2023-04-19T21:20:40.734Z,5.70
2023-04-19T21:23:10.322Z,5.70
2023-04-19T21:25:38.593Z,5.70
2023-04-19T21:28:06.751Z,5.70
2023-04-19T21:30:38.605Z,5.70
2023-04-19T21:33:06.719Z,5.60
2023-04-19T21:35:35.566Z,5.40
2023-04-19T21:38:04.018Z,5.40
2023-04-19T21:40:33.585Z,5.50
2023-04-19T21:43:01.692Z,5.60
2023-04-19T21:45:29.906Z,5.60
2023-04-19T21:47:58.065Z,5.50
2023-04-19T21:50:26.262Z,5.50
2023-04-19T21:52:54.371Z,5.50
2023-04-19T21:55:22.804Z,5.50
2023-04-19T21:57:52.350Z,5.60
2023-04-19T22:00:20.486Z,5.50
2023-04-19T22:02:48.773Z,5.40
2023-04-19T22:05:17.193Z,5.40
2023-04-19T22:07:47.165Z,5.50
2023-04-19T22:10:15.269Z,5.60
2023-04-19T22:12:57.433Z,5.60
2023-04-19T22:15:28.402Z,5.60
2023-04-19T22:17:58.124Z,5.50
2023-04-19T22:20:27.109Z,5.40
2023-04-19T22:22:55.517Z,5.50
2023-04-19T22:25:23.652Z,5.50
2023-04-19T22:27:51.781Z,5.50
2023-04-19T22:30:19.889Z,5.40
2023-04-19T22:32:49.812Z,5.40
2023-04-19T22:35:19.080Z,5.50
2023-04-19T22:37:48.228Z,5.40
2023-04-19T22:40:16.412Z,5.40
2023-04-19T22:42:44.552Z,5.40
2023-04-19T22:45:12.998Z,5.40
2023-04-19T22:47:41.170Z,5.50
2023-04-19T22:50:11.936Z,5.60
2023-04-19T22:52:40.888Z,5.50
2023-04-19T22:55:10.165Z,5.50
2023-04-19T22:57:38.326Z,5.40
2023-04-19T23:00:10.602Z,5.30
2023-04-19T23:02:39.434Z,5.20
2023-04-19T23:05:11.234Z,5.10
2023-04-19T23:07:41.809Z,5.20
2023-04-19T23:10:11.376Z,5.20
2023-04-19T23:12:39.958Z,5.10
2023-04-19T23:15:11.001Z,5.20
2023-04-19T23:17:40.333Z,5.20
2023-04-19T23:20:11.445Z,5.30
2023-04-19T23:22:40.067Z,5.30
2023-04-19T23:25:09.860Z,5.20
2023-04-19T23:27:38.061Z,5.20
2023-04-19T23:30:08.937Z,5.20
2023-04-19T23:32:37.147Z,5.20
2023-04-19T23:35:06.052Z,5.20
2023-04-19T23:37:36.639Z,5.20
2023-04-19T23:40:06.197Z,5.30
2023-04-19T23:42:34.327Z,5.30
2023-04-19T23:45:02.426Z,5.30
2023-04-19T23:47:30.580Z,5.20
2023-04-19T23:49:58.744Z,5.20
2023-04-19T23:52:27.495Z,5.20
2023-04-19T23:54:56.939Z,5.20
2023-04-19T23:57:25.078Z,5.30
2023-04-19T23:59:53.186Z,5.20
